sensor_id;sensor_type;location;lat;lon;timestamp;P1;durP1;ratioP1;P2;durP2;ratioP2
55114;SDS011;41010;53.252;5.786;2023-05-19T00:00:43;5.28;;;1.38;;
55114;SDS011;41010;53.252;5.786;2023-05-19T00:03:10;2.60;;;1.38;;
55114;SDS011;41010;53.252;5.786;2023-05-19T00:05:38;2.65;;;1.05;;
55114;SDS011;41010;53.252;5.786;2023-05-19T00:08:11;2.63;;;1.17;;
55114;SDS011;41010;53.252;5.786;2023-05-19T00:10:40;5.03;;;1.50;;
55114;SDS011;41010;53.252;5.786;2023-05-19T00:13:07;2.97;;;1.40;;
55114;SDS011;41010;53.252;5.786;2023-05-19T00:15:35;3.65;;;1.38;;
55114;SDS011;41010;53.252;5.786;2023-05-19T00:18:02;4.28;;;1.27;;
55114;SDS011;41010;53.252;5.786;2023-05-19T00:20:30;2.78;;;1.10;;
55114;SDS011;41010;53.252;5.786;2023-05-19T00:22:57;5.32;;;1.60;;
55114;SDS011;41010;53.252;5.786;2023-05-19T00:25:25;3.47;;;1.20;;
55114;SDS011;41010;53.252;5.786;2023-05-19T00:27:53;4.72;;;1.38;;
55114;SDS011;41010;53.252;5.786;2023-05-19T00:30:20;9.70;;;1.52;;
55114;SDS011;41010;53.252;5.786;2023-05-19T00:32:47;4.00;;;1.50;;
55114;SDS011;41010;53.252;5.786;2023-05-19T00:35:15;6.82;;;1.58;;
55114;SDS011;41010;53.252;5.786;2023-05-19T00:37:42;2.33;;;1.13;;
55114;SDS011;41010;53.252;5.786;2023-05-19T00:40:09;4.32;;;1.40;;
55114;SDS011;41010;53.252;5.786;2023-05-19T00:42:38;1.88;;;1.10;;
55114;SDS011;41010;53.252;5.786;2023-05-19T00:45:06;2.92;;;1.27;;
55114;SDS011;41010;53.252;5.786;2023-05-19T00:47:33;3.97;;;1.20;;
55114;SDS011;41010;53.252;5.786;2023-05-19T00:50:00;3.58;;;1.55;;
55114;SDS011;41010;53.252;5.786;2023-05-19T00:52:28;2.72;;;1.35;;
55114;SDS011;41010;53.252;5.786;2023-05-19T00:54:55;4.93;;;1.27;;
55114;SDS011;41010;53.252;5.786;2023-05-19T00:57:23;4.65;;;1.48;;
55114;SDS011;41010;53.252;5.786;2023-05-19T00:59:52;3.35;;;1.30;;
55114;SDS011;41010;53.252;5.786;2023-05-19T01:02:20;3.95;;;1.80;;
55114;SDS011;41010;53.252;5.786;2023-05-19T01:04:48;4.65;;;1.50;;
55114;SDS011;41010;53.252;5.786;2023-05-19T01:07:17;2.22;;;1.27;;
55114;SDS011;41010;53.252;5.786;2023-05-19T01:09:45;3.05;;;1.30;;
55114;SDS011;41010;53.252;5.786;2023-05-19T01:12:13;3.22;;;1.58;;
55114;SDS011;41010;53.252;5.786;2023-05-19T01:14:40;5.28;;;1.60;;
55114;SDS011;41010;53.252;5.786;2023-05-19T01:17:11;5.22;;;1.52;;
55114;SDS011;41010;53.252;5.786;2023-05-19T01:19:51;4.77;;;1.17;;
55114;SDS011;41010;53.252;5.786;2023-05-19T01:28:37;5.28;;;1.30;;
55114;SDS011;41010;53.252;5.786;2023-05-19T01:31:11;3.55;;;1.60;;
55114;SDS011;41010;53.252;5.786;2023-05-19T01:33:40;2.53;;;1.20;;
55114;SDS011;41010;53.252;5.786;2023-05-19T01:36:10;4.55;;;1.50;;
55114;SDS011;41010;53.252;5.786;2023-05-19T01:38:38;5.70;;;1.40;;
55114;SDS011;41010;53.252;5.786;2023-05-19T01:41:05;3.70;;;1.23;;
55114;SDS011;41010;53.252;5.786;2023-05-19T01:43:33;3.55;;;1.48;;
55114;SDS011;41010;53.252;5.786;2023-05-19T01:46:01;8.05;;;2.08;;
55114;SDS011;41010;53.252;5.786;2023-05-19T01:48:30;3.40;;;1.40;;
55114;SDS011;41010;53.252;5.786;2023-05-19T01:50:57;3.92;;;1.63;;
55114;SDS011;41010;53.252;5.786;2023-05-19T02:06:58;2.60;;;1.20;;
55114;SDS011;41010;53.252;5.786;2023-05-19T02:09:30;3.05;;;1.50;;
55114;SDS011;41010;53.252;5.786;2023-05-19T02:12:02;4.72;;;1.30;;
55114;SDS011;41010;53.252;5.786;2023-05-19T02:14:32;7.85;;;1.75;;
55114;SDS011;41010;53.252;5.786;2023-05-19T02:17:01;5.30;;;1.58;;
55114;SDS011;41010;53.252;5.786;2023-05-19T02:19:31;3.33;;;1.13;;
55114;SDS011;41010;53.252;5.786;2023-05-19T02:22:00;2.83;;;1.40;;
55114;SDS011;41010;53.252;5.786;2023-05-19T02:24:27;3.63;;;1.25;;
55114;SDS011;41010;53.252;5.786;2023-05-19T02:26:54;3.58;;;1.33;;
55114;SDS011;41010;53.252;5.786;2023-05-19T02:29:21;3.58;;;1.20;;
55114;SDS011;41010;53.252;5.786;2023-05-19T02:31:49;2.05;;;1.20;;
55114;SDS011;41010;53.252;5.786;2023-05-19T02:34:16;4.13;;;1.25;;
55114;SDS011;41010;53.252;5.786;2023-05-19T02:36:43;4.97;;;1.17;;
55114;SDS011;41010;53.252;5.786;2023-05-19T02:39:15;3.65;;;1.20;;
55114;SDS011;41010;53.252;5.786;2023-05-19T02:41:42;1.98;;;1.10;;
55114;SDS011;41010;53.252;5.786;2023-05-19T02:44:09;3.85;;;1.00;;
55114;SDS011;41010;53.252;5.786;2023-05-19T02:46:36;3.88;;;1.20;;
55114;SDS011;41010;53.252;5.786;2023-05-19T02:49:04;3.63;;;1.13;;
55114;SDS011;41010;53.252;5.786;2023-05-19T02:51:31;4.45;;;1.20;;
55114;SDS011;41010;53.252;5.786;2023-05-19T02:53:58;2.63;;;0.95;;
55114;SDS011;41010;53.252;5.786;2023-05-19T02:56:27;2.80;;;1.23;;
55114;SDS011;41010;53.252;5.786;2023-05-19T02:58:54;3.33;;;0.80;;
55114;SDS011;41010;53.252;5.786;2023-05-19T03:01:22;1.38;;;1.05;;
55114;SDS011;41010;53.252;5.786;2023-05-19T03:03:49;2.15;;;0.80;;
55114;SDS011;41010;53.252;5.786;2023-05-19T03:06:17;1.50;;;0.90;;
55114;SDS011;41010;53.252;5.786;2023-05-19T03:08:44;3.22;;;1.10;;
55114;SDS011;41010;53.252;5.786;2023-05-19T03:11:11;4.07;;;1.10;;
55114;SDS011;41010;53.252;5.786;2023-05-19T03:13:40;1.58;;;0.80;;
55114;SDS011;41010;53.252;5.786;2023-05-19T03:16:08;7.40;;;1.52;;
55114;SDS011;41010;53.252;5.786;2023-05-19T03:18:36;3.15;;;1.27;;
55114;SDS011;41010;53.252;5.786;2023-05-19T03:21:04;3.92;;;1.08;;
55114;SDS011;41010;53.252;5.786;2023-05-19T03:23:31;3.75;;;1.10;;
55114;SDS011;41010;53.252;5.786;2023-05-19T03:25:58;2.95;;;1.00;;
55114;SDS011;41010;53.252;5.786;2023-05-19T03:28:25;3.33;;;1.02;;
55114;SDS011;41010;53.252;5.786;2023-05-19T03:30:54;3.47;;;1.00;;
55114;SDS011;41010;53.252;5.786;2023-05-19T03:33:21;1.35;;;0.80;;
55114;SDS011;41010;53.252;5.786;2023-05-19T03:35:49;5.68;;;1.00;;
55114;SDS011;41010;53.252;5.786;2023-05-19T03:38:17;1.65;;;0.80;;
55114;SDS011;41010;53.252;5.786;2023-05-19T03:40:44;1.73;;;0.80;;
55114;SDS011;41010;53.252;5.786;2023-05-19T03:43:11;2.25;;;0.82;;
55114;SDS011;41010;53.252;5.786;2023-05-19T03:45:40;2.92;;;1.00;;
55114;SDS011;41010;53.252;5.786;2023-05-19T03:48:08;2.65;;;0.90;;
55114;SDS011;41010;53.252;5.786;2023-05-19T03:50:36;4.53;;;1.10;;
55114;SDS011;41010;53.252;5.786;2023-05-19T03:53:03;2.95;;;0.77;;
55114;SDS011;41010;53.252;5.786;2023-05-19T03:55:31;5.07;;;1.25;;
55114;SDS011;41010;53.252;5.786;2023-05-19T03:57:58;2.45;;;1.10;;
55114;SDS011;41010;53.252;5.786;2023-05-19T04:00:26;6.78;;;1.50;;
55114;SDS011;41010;53.252;5.786;2023-05-19T04:02:53;6.50;;;1.52;;
55114;SDS011;41010;53.252;5.786;2023-05-19T04:05:22;2.45;;;1.05;;
55114;SDS011;41010;53.252;5.786;2023-05-19T04:07:49;1.67;;;1.00;;
55114;SDS011;41010;53.252;5.786;2023-05-19T04:10:16;2.55;;;1.00;;
55114;SDS011;41010;53.252;5.786;2023-05-19T04:12:45;2.05;;;0.80;;
55114;SDS011;41010;53.252;5.786;2023-05-19T04:15:12;1.50;;;0.85;;
55114;SDS011;41010;53.252;5.786;2023-05-19T04:17:40;2.78;;;1.08;;
55114;SDS011;41010;53.252;5.786;2023-05-19T04:20:07;2.13;;;0.80;;
55114;SDS011;41010;53.252;5.786;2023-05-19T04:22:36;2.42;;;1.00;;
55114;SDS011;41010;53.252;5.786;2023-05-19T04:25:03;3.40;;;0.68;;
55114;SDS011;41010;53.252;5.786;2023-05-19T04:27:31;4.43;;;0.85;;
55114;SDS011;41010;53.252;5.786;2023-05-19T04:30:00;1.48;;;0.80;;
55114;SDS011;41010;53.252;5.786;2023-05-19T04:32:28;2.30;;;1.30;;
55114;SDS011;41010;53.252;5.786;2023-05-19T04:34:55;3.35;;;1.20;;
55114;SDS011;41010;53.252;5.786;2023-05-19T04:37:23;2.53;;;1.10;;
55114;SDS011;41010;53.252;5.786;2023-05-19T04:39:52;3.05;;;1.05;;
55114;SDS011;41010;53.252;5.786;2023-05-19T04:42:19;2.67;;;1.38;;
55114;SDS011;41010;53.252;5.786;2023-05-19T04:44:50;2.15;;;1.10;;
55114;SDS011;41010;53.252;5.786;2023-05-19T04:47:17;1.95;;;1.02;;
55114;SDS011;41010;53.252;5.786;2023-05-19T04:49:45;3.75;;;1.30;;
55114;SDS011;41010;53.252;5.786;2023-05-19T04:52:12;2.00;;;1.02;;
55114;SDS011;41010;53.252;5.786;2023-05-19T04:54:40;1.95;;;1.00;;
55114;SDS011;41010;53.252;5.786;2023-05-19T04:57:08;2.00;;;1.10;;
55114;SDS011;41010;53.252;5.786;2023-05-19T04:59:35;6.65;;;1.40;;
55114;SDS011;41010;53.252;5.786;2023-05-19T05:02:03;1.75;;;0.95;;
55114;SDS011;41010;53.252;5.786;2023-05-19T05:04:30;5.75;;;1.20;;
55114;SDS011;41010;53.252;5.786;2023-05-19T05:06:57;1.73;;;0.90;;
55114;SDS011;41010;53.252;5.786;2023-05-19T05:09:24;3.00;;;1.15;;
55114;SDS011;41010;53.252;5.786;2023-05-19T05:11:52;3.47;;;1.20;;
55114;SDS011;41010;53.252;5.786;2023-05-19T05:14:21;2.95;;;1.15;;
55114;SDS011;41010;53.252;5.786;2023-05-19T05:16:48;4.13;;;1.60;;
55114;SDS011;41010;53.252;5.786;2023-05-19T05:19:16;5.78;;;1.55;;
55114;SDS011;41010;53.252;5.786;2023-05-19T05:21:44;1.67;;;1.20;;
55114;SDS011;41010;53.252;5.786;2023-05-19T05:24:11;3.53;;;1.55;;
55114;SDS011;41010;53.252;5.786;2023-05-19T05:26:39;2.17;;;1.48;;
55114;SDS011;41010;53.252;5.786;2023-05-19T05:29:07;5.75;;;1.40;;
55114;SDS011;41010;53.252;5.786;2023-05-19T05:31:36;4.88;;;1.52;;
55114;SDS011;41010;53.252;5.786;2023-05-19T05:34:03;5.72;;;1.63;;
55114;SDS011;41010;53.252;5.786;2023-05-19T05:36:31;3.75;;;1.60;;
55114;SDS011;41010;53.252;5.786;2023-05-19T05:38:59;3.35;;;1.73;;
55114;SDS011;41010;53.252;5.786;2023-05-19T05:41:26;4.97;;;1.75;;
55114;SDS011;41010;53.252;5.786;2023-05-19T05:43:59;4.70;;;1.70;;
55114;SDS011;41010;53.252;5.786;2023-05-19T05:46:26;4.55;;;1.95;;
55114;SDS011;41010;53.252;5.786;2023-05-19T05:48:55;6.30;;;2.05;;
55114;SDS011;41010;53.252;5.786;2023-05-19T05:51:23;6.32;;;2.05;;
55114;SDS011;41010;53.252;5.786;2023-05-19T05:53:51;8.73;;;2.10;;
55114;SDS011;41010;53.252;5.786;2023-05-19T05:56:18;7.38;;;2.45;;
55114;SDS011;41010;53.252;5.786;2023-05-19T05:58:46;9.80;;;2.33;;
55114;SDS011;41010;53.252;5.786;2023-05-19T06:01:14;8.93;;;2.30;;
55114;SDS011;41010;53.252;5.786;2023-05-19T06:03:42;8.43;;;2.20;;
55114;SDS011;41010;53.252;5.786;2023-05-19T06:06:10;5.45;;;2.40;;
55114;SDS011;41010;53.252;5.786;2023-05-19T06:08:38;9.32;;;2.70;;
55114;SDS011;41010;53.252;5.786;2023-05-19T06:11:05;10.15;;;2.53;;
55114;SDS011;41010;53.252;5.786;2023-05-19T06:13:33;9.30;;;2.75;;
55114;SDS011;41010;53.252;5.786;2023-05-19T06:16:01;8.43;;;2.92;;
55114;SDS011;41010;53.252;5.786;2023-05-19T06:18:28;7.68;;;2.58;;
55114;SDS011;41010;53.252;5.786;2023-05-19T06:20:55;5.80;;;2.53;;
55114;SDS011;41010;53.252;5.786;2023-05-19T06:23:24;9.27;;;2.60;;
55114;SDS011;41010;53.252;5.786;2023-05-19T06:25:53;10.35;;;2.85;;
55114;SDS011;41010;53.252;5.786;2023-05-19T06:28:20;9.35;;;2.40;;
55114;SDS011;41010;53.252;5.786;2023-05-19T06:30:48;5.20;;;2.53;;
55114;SDS011;41010;53.252;5.786;2023-05-19T06:33:15;8.50;;;2.42;;
55114;SDS011;41010;53.252;5.786;2023-05-19T06:35:42;6.70;;;2.70;;
55114;SDS011;41010;53.252;5.786;2023-05-19T06:38:09;11.27;;;2.80;;
55114;SDS011;41010;53.252;5.786;2023-05-19T06:40:38;7.13;;;2.58;;
55114;SDS011;41010;53.252;5.786;2023-05-19T06:43:05;5.78;;;2.20;;
55114;SDS011;41010;53.252;5.786;2023-05-19T06:45:32;5.35;;;2.20;;
55114;SDS011;41010;53.252;5.786;2023-05-19T06:48:00;7.40;;;2.70;;
55114;SDS011;41010;53.252;5.786;2023-05-19T06:50:27;6.88;;;2.45;;
55114;SDS011;41010;53.252;5.786;2023-05-19T06:52:54;7.30;;;2.00;;
55114;SDS011;41010;53.252;5.786;2023-05-19T06:55:22;7.82;;;2.25;;
55114;SDS011;41010;53.252;5.786;2023-05-19T06:57:51;6.85;;;2.50;;
55114;SDS011;41010;53.252;5.786;2023-05-19T07:00:18;6.30;;;2.38;;
55114;SDS011;41010;53.252;5.786;2023-05-19T07:02:45;7.70;;;2.47;;
55114;SDS011;41010;53.252;5.786;2023-05-19T07:05:13;5.45;;;1.90;;
55114;SDS011;41010;53.252;5.786;2023-05-19T07:07:40;6.53;;;2.03;;
55114;SDS011;41010;53.252;5.786;2023-05-19T07:10:07;6.38;;;2.25;;
55114;SDS011;41010;53.252;5.786;2023-05-19T07:12:35;6.72;;;2.22;;
55114;SDS011;41010;53.252;5.786;2023-05-19T07:15:04;6.55;;;2.30;;
55114;SDS011;41010;53.252;5.786;2023-05-19T07:17:31;10.90;;;2.40;;
55114;SDS011;41010;53.252;5.786;2023-05-19T07:19:58;4.45;;;1.70;;
55114;SDS011;41010;53.252;5.786;2023-05-19T07:22:26;6.45;;;1.83;;
55114;SDS011;41010;53.252;5.786;2023-05-19T07:24:54;6.22;;;2.28;;
55114;SDS011;41010;53.252;5.786;2023-05-19T07:27:22;3.53;;;1.38;;
55114;SDS011;41010;53.252;5.786;2023-05-19T07:29:49;4.38;;;1.98;;
55114;SDS011;41010;53.252;5.786;2023-05-19T07:32:17;3.28;;;1.50;;
55114;SDS011;41010;53.252;5.786;2023-05-19T07:34:45;4.57;;;1.30;;
55114;SDS011;41010;53.252;5.786;2023-05-19T07:37:12;7.93;;;1.50;;
55114;SDS011;41010;53.252;5.786;2023-05-19T07:39:40;3.53;;;1.85;;
55114;SDS011;41010;53.252;5.786;2023-05-19T07:42:07;2.85;;;1.40;;
55114;SDS011;41010;53.252;5.786;2023-05-19T07:44:34;3.92;;;1.52;;
55114;SDS011;41010;53.252;5.786;2023-05-19T07:47:01;4.28;;;1.63;;
55114;SDS011;41010;53.252;5.786;2023-05-19T07:49:30;7.53;;;1.60;;
55114;SDS011;41010;53.252;5.786;2023-05-19T07:51:57;4.38;;;1.73;;
55114;SDS011;41010;53.252;5.786;2023-05-19T07:54:25;5.43;;;1.73;;
55114;SDS011;41010;53.252;5.786;2023-05-19T07:56:52;5.40;;;1.70;;
55114;SDS011;41010;53.252;5.786;2023-05-19T07:59:20;6.45;;;1.75;;
55114;SDS011;41010;53.252;5.786;2023-05-19T08:01:47;5.43;;;1.40;;
55114;SDS011;41010;53.252;5.786;2023-05-19T08:04:14;4.68;;;1.40;;
55114;SDS011;41010;53.252;5.786;2023-05-19T08:06:43;5.35;;;1.73;;
55114;SDS011;41010;53.252;5.786;2023-05-19T08:09:10;3.15;;;1.48;;
55114;SDS011;41010;53.252;5.786;2023-05-19T08:11:37;4.28;;;1.50;;
55114;SDS011;41010;53.252;5.786;2023-05-19T08:14:05;3.22;;;1.30;;
55114;SDS011;41010;53.252;5.786;2023-05-19T08:16:32;4.45;;;1.30;;
55114;SDS011;41010;53.252;5.786;2023-05-19T08:18:59;9.63;;;1.50;;
55114;SDS011;41010;53.252;5.786;2023-05-19T08:21:29;6.43;;;1.73;;
55114;SDS011;41010;53.252;5.786;2023-05-19T08:24:00;5.55;;;1.70;;
55114;SDS011;41010;53.252;5.786;2023-05-19T08:26:28;2.72;;;1.15;;
55114;SDS011;41010;53.252;5.786;2023-05-19T08:28:55;3.72;;;1.30;;
55114;SDS011;41010;53.252;5.786;2023-05-19T08:31:23;4.95;;;1.63;;
55114;SDS011;41010;53.252;5.786;2023-05-19T08:33:50;2.92;;;1.33;;
55114;SDS011;41010;53.252;5.786;2023-05-19T08:36:17;5.47;;;1.70;;
55114;SDS011;41010;53.252;5.786;2023-05-19T08:38:46;5.18;;;1.73;;
55114;SDS011;41010;53.252;5.786;2023-05-19T08:41:14;3.10;;;1.50;;
55114;SDS011;41010;53.252;5.786;2023-05-19T08:43:41;2.47;;;1.25;;
55114;SDS011;41010;53.252;5.786;2023-05-19T08:46:09;3.92;;;1.58;;
55114;SDS011;41010;53.252;5.786;2023-05-19T08:48:41;2.97;;;1.33;;
55114;SDS011;41010;53.252;5.786;2023-05-19T08:51:10;8.18;;;1.48;;
55114;SDS011;41010;53.252;5.786;2023-05-19T08:53:39;4.22;;;1.83;;
55114;SDS011;41010;53.252;5.786;2023-05-19T08:56:10;2.67;;;1.50;;
55114;SDS011;41010;53.252;5.786;2023-05-19T08:58:39;4.03;;;1.50;;
55114;SDS011;41010;53.252;5.786;2023-05-19T09:01:08;5.03;;;1.75;;
55114;SDS011;41010;53.252;5.786;2023-05-19T09:03:35;2.30;;;1.42;;
55114;SDS011;41010;53.252;5.786;2023-05-19T09:06:04;3.03;;;1.38;;
55114;SDS011;41010;53.252;5.786;2023-05-19T09:08:32;5.60;;;1.77;;
55114;SDS011;41010;53.252;5.786;2023-05-19T09:11:00;4.75;;;1.55;;
55114;SDS011;41010;53.252;5.786;2023-05-19T09:13:27;2.97;;;1.42;;
55114;SDS011;41010;53.252;5.786;2023-05-19T09:15:56;3.75;;;1.60;;
55114;SDS011;41010;53.252;5.786;2023-05-19T09:18:23;3.47;;;1.63;;
55114;SDS011;41010;53.252;5.786;2023-05-19T09:20:54;3.50;;;1.40;;
55114;SDS011;41010;53.252;5.786;2023-05-19T09:25:53;3.80;;;1.55;;
55114;SDS011;41010;53.252;5.786;2023-05-19T09:28:23;4.20;;;1.38;;
55114;SDS011;41010;53.252;5.786;2023-05-19T09:30:59;3.10;;;1.40;;
55114;SDS011;41010;53.252;5.786;2023-05-19T09:33:27;5.78;;;1.67;;
55114;SDS011;41010;53.252;5.786;2023-05-19T09:35:55;3.38;;;1.33;;
55114;SDS011;41010;53.252;5.786;2023-05-19T09:38:23;4.57;;;1.77;;
55114;SDS011;41010;53.252;5.786;2023-05-19T09:40:51;5.03;;;1.50;;
55114;SDS011;41010;53.252;5.786;2023-05-19T09:43:18;2.70;;;1.65;;
55114;SDS011;41010;53.252;5.786;2023-05-19T09:45:45;2.88;;;1.60;;
55114;SDS011;41010;53.252;5.786;2023-05-19T09:48:14;5.22;;;1.73;;
55114;SDS011;41010;53.252;5.786;2023-05-19T09:50:41;4.22;;;1.73;;
55114;SDS011;41010;53.252;5.786;2023-05-19T09:53:11;3.40;;;1.40;;
55114;SDS011;41010;53.252;5.786;2023-05-19T09:55:40;4.88;;;1.40;;
55114;SDS011;41010;53.252;5.786;2023-05-19T09:58:08;5.50;;;1.70;;
55114;SDS011;41010;53.252;5.786;2023-05-19T10:00:35;3.85;;;1.67;;
55114;SDS011;41010;53.252;5.786;2023-05-19T10:03:03;3.03;;;1.60;;
55114;SDS011;41010;53.252;5.786;2023-05-19T10:05:32;3.67;;;1.40;;
55114;SDS011;41010;53.252;5.786;2023-05-19T10:08:00;3.10;;;1.23;;
55114;SDS011;41010;53.252;5.786;2023-05-19T10:10:31;3.13;;;1.63;;
55114;SDS011;41010;53.252;5.786;2023-05-19T10:12:59;3.55;;;1.60;;
55114;SDS011;41010;53.252;5.786;2023-05-19T10:15:28;7.20;;;1.70;;
55114;SDS011;41010;53.252;5.786;2023-05-19T10:17:55;3.97;;;1.63;;
55114;SDS011;41010;53.252;5.786;2023-05-19T10:20:23;5.55;;;1.98;;
55114;SDS011;41010;53.252;5.786;2023-05-19T10:22:53;3.35;;;1.58;;
55114;SDS011;41010;53.252;5.786;2023-05-19T10:25:21;2.75;;;1.30;;
55114;SDS011;41010;53.252;5.786;2023-05-19T10:27:49;5.57;;;1.52;;
55114;SDS011;41010;53.252;5.786;2023-05-19T10:30:17;4.18;;;1.65;;
55114;SDS011;41010;53.252;5.786;2023-05-19T10:32:46;4.22;;;1.60;;
55114;SDS011;41010;53.252;5.786;2023-05-19T10:35:35;4.47;;;1.40;;
55114;SDS011;41010;53.252;5.786;2023-05-19T10:38:10;3.90;;;1.95;;
55114;SDS011;41010;53.252;5.786;2023-05-19T10:40:40;4.38;;;1.67;;
55114;SDS011;41010;53.252;5.786;2023-05-19T10:43:14;3.95;;;1.70;;
55114;SDS011;41010;53.252;5.786;2023-05-19T10:45:43;3.22;;;1.70;;
55114;SDS011;41010;53.252;5.786;2023-05-19T10:48:12;6.03;;;1.75;;
55114;SDS011;41010;53.252;5.786;2023-05-19T10:50:42;5.25;;;1.75;;
55114;SDS011;41010;53.252;5.786;2023-05-19T10:53:14;6.28;;;1.60;;
55114;SDS011;41010;53.252;5.786;2023-05-19T10:55:46;3.22;;;1.63;;
55114;SDS011;41010;53.252;5.786;2023-05-19T10:58:13;3.17;;;1.50;;
55114;SDS011;41010;53.252;5.786;2023-05-19T11:00:40;3.45;;;1.58;;
55114;SDS011;41010;53.252;5.786;2023-05-19T11:03:11;3.00;;;1.65;;
55114;SDS011;41010;53.252;5.786;2023-05-19T11:05:38;3.85;;;1.45;;
55114;SDS011;41010;53.252;5.786;2023-05-19T11:08:06;2.85;;;1.40;;
55114;SDS011;41010;53.252;5.786;2023-05-19T11:10:37;4.78;;;2.00;;
55114;SDS011;41010;53.252;5.786;2023-05-19T11:13:04;4.07;;;1.75;;
55114;SDS011;41010;53.252;5.786;2023-05-19T11:15:33;7.15;;;1.65;;
55114;SDS011;41010;53.252;5.786;2023-05-19T11:18:01;4.07;;;1.40;;
55114;SDS011;41010;53.252;5.786;2023-05-19T11:20:30;2.10;;;1.20;;
55114;SDS011;41010;53.252;5.786;2023-05-19T11:23:05;3.30;;;1.45;;
55114;SDS011;41010;53.252;5.786;2023-05-19T11:25:44;2.88;;;1.30;;
55114;SDS011;41010;53.252;5.786;2023-05-19T11:28:12;3.17;;;1.50;;
55114;SDS011;41010;53.252;5.786;2023-05-19T11:30:41;5.55;;;1.67;;
55114;SDS011;41010;53.252;5.786;2023-05-19T11:33:09;2.58;;;1.42;;
55114;SDS011;41010;53.252;5.786;2023-05-19T11:35:37;4.97;;;1.50;;
55114;SDS011;41010;53.252;5.786;2023-05-19T11:38:05;1.95;;;1.30;;
55114;SDS011;41010;53.252;5.786;2023-05-19T11:40:32;2.65;;;1.60;;
55114;SDS011;41010;53.252;5.786;2023-05-19T11:43:01;5.55;;;1.60;;
55114;SDS011;41010;53.252;5.786;2023-05-19T11:45:30;1.65;;;1.17;;
55114;SDS011;41010;53.252;5.786;2023-05-19T11:47:58;3.58;;;1.80;;
55114;SDS011;41010;53.252;5.786;2023-05-19T11:50:26;3.15;;;1.38;;
55114;SDS011;41010;53.252;5.786;2023-05-19T11:52:54;3.97;;;1.27;;
55114;SDS011;41010;53.252;5.786;2023-05-19T11:55:21;2.38;;;1.20;;
55114;SDS011;41010;53.252;5.786;2023-05-19T11:57:55;4.90;;;1.40;;
55114;SDS011;41010;53.252;5.786;2023-05-19T12:00:25;3.85;;;1.63;;
55114;SDS011;41010;53.252;5.786;2023-05-19T12:02:52;1.73;;;1.08;;
55114;SDS011;41010;53.252;5.786;2023-05-19T12:05:20;5.28;;;1.10;;
55114;SDS011;41010;53.252;5.786;2023-05-19T12:07:47;3.08;;;1.75;;
55114;SDS011;41010;53.252;5.786;2023-05-19T12:10:16;2.28;;;1.40;;
55114;SDS011;41010;53.252;5.786;2023-05-19T12:12:44;3.85;;;1.52;;
55114;SDS011;41010;53.252;5.786;2023-05-19T12:15:13;3.75;;;1.67;;
55114;SDS011;41010;53.252;5.786;2023-05-19T12:17:43;3.75;;;1.45;;
55114;SDS011;41010;53.252;5.786;2023-05-19T12:20:11;3.20;;;1.60;;
55114;SDS011;41010;53.252;5.786;2023-05-19T12:22:38;4.30;;;1.63;;
55114;SDS011;41010;53.252;5.786;2023-05-19T12:25:06;3.40;;;1.40;;
55114;SDS011;41010;53.252;5.786;2023-05-19T12:27:34;3.30;;;1.38;;
55114;SDS011;41010;53.252;5.786;2023-05-19T12:30:02;5.82;;;1.63;;
55114;SDS011;41010;53.252;5.786;2023-05-19T12:32:32;4.30;;;1.65;;
55114;SDS011;41010;53.252;5.786;2023-05-19T12:35:03;5.93;;;1.98;;
55114;SDS011;41010;53.252;5.786;2023-05-19T12:37:30;2.80;;;1.70;;
55114;SDS011;41010;53.252;5.786;2023-05-19T12:39:59;2.72;;;1.45;;
55114;SDS011;41010;53.252;5.786;2023-05-19T12:42:26;4.60;;;1.80;;
55114;SDS011;41010;53.252;5.786;2023-05-19T12:44:55;6.00;;;1.77;;
55114;SDS011;41010;53.252;5.786;2023-05-19T12:47:27;3.47;;;1.75;;
55114;SDS011;41010;53.252;5.786;2023-05-19T12:49:56;3.70;;;1.98;;
55114;SDS011;41010;53.252;5.786;2023-05-19T12:52:28;5.30;;;2.10;;
55114;SDS011;41010;53.252;5.786;2023-05-19T12:54:57;3.13;;;1.90;;
55114;SDS011;41010;53.252;5.786;2023-05-19T12:57:25;3.47;;;1.77;;
55114;SDS011;41010;53.252;5.786;2023-05-19T12:59:59;4.10;;;2.15;;
55114;SDS011;41010;53.252;5.786;2023-05-19T13:02:26;3.88;;;1.90;;
55114;SDS011;41010;53.252;5.786;2023-05-19T13:04:53;4.63;;;2.03;;
55114;SDS011;41010;53.252;5.786;2023-05-19T13:07:22;3.25;;;2.10;;
55114;SDS011;41010;53.252;5.786;2023-05-19T13:09:51;3.92;;;2.25;;
55114;SDS011;41010;53.252;5.786;2023-05-19T13:12:18;5.40;;;2.03;;
55114;SDS011;41010;53.252;5.786;2023-05-19T13:14:46;6.07;;;2.53;;
55114;SDS011;41010;53.252;5.786;2023-05-19T13:17:13;7.22;;;2.50;;
55114;SDS011;41010;53.252;5.786;2023-05-19T13:19:40;5.63;;;2.80;;
55114;SDS011;41010;53.252;5.786;2023-05-19T13:22:07;4.18;;;2.22;;
55114;SDS011;41010;53.252;5.786;2023-05-19T13:24:34;4.60;;;2.40;;
55114;SDS011;41010;53.252;5.786;2023-05-19T13:27:03;4.35;;;2.30;;
55114;SDS011;41010;53.252;5.786;2023-05-19T13:29:30;6.05;;;2.30;;
55114;SDS011;41010;53.252;5.786;2023-05-19T13:31:58;4.28;;;2.10;;
55114;SDS011;41010;53.252;5.786;2023-05-19T13:34:25;3.42;;;2.13;;
55114;SDS011;41010;53.252;5.786;2023-05-19T13:36:52;5.22;;;2.20;;
55114;SDS011;41010;53.252;5.786;2023-05-19T13:39:19;4.43;;;2.20;;
55114;SDS011;41010;53.252;5.786;2023-05-19T13:41:47;4.10;;;2.00;;
55114;SDS011;41010;53.252;5.786;2023-05-19T13:44:15;3.88;;;2.28;;
55114;SDS011;41010;53.252;5.786;2023-05-19T13:46:43;3.28;;;2.13;;
55114;SDS011;41010;53.252;5.786;2023-05-19T13:49:10;3.78;;;2.08;;
55114;SDS011;41010;53.252;5.786;2023-05-19T13:51:38;4.20;;;2.30;;
55114;SDS011;41010;53.252;5.786;2023-05-19T13:54:05;3.08;;;2.00;;
55114;SDS011;41010;53.252;5.786;2023-05-19T13:56:32;7.25;;;2.53;;
55114;SDS011;41010;53.252;5.786;2023-05-19T13:59:00;5.57;;;2.40;;
55114;SDS011;41010;53.252;5.786;2023-05-19T14:01:29;6.05;;;2.33;;
55114;SDS011;41010;53.252;5.786;2023-05-19T14:03:56;4.40;;;2.20;;
55114;SDS011;41010;53.252;5.786;2023-05-19T14:06:24;5.53;;;2.30;;
55114;SDS011;41010;53.252;5.786;2023-05-19T14:08:52;5.13;;;2.42;;
55114;SDS011;41010;53.252;5.786;2023-05-19T14:11:19;4.03;;;2.25;;
55114;SDS011;41010;53.252;5.786;2023-05-19T14:13:47;4.13;;;1.95;;
55114;SDS011;41010;53.252;5.786;2023-05-19T14:16:14;4.97;;;2.13;;
55114;SDS011;41010;53.252;5.786;2023-05-19T14:18:43;3.67;;;2.10;;
55114;SDS011;41010;53.252;5.786;2023-05-19T14:21:10;3.92;;;2.20;;
55114;SDS011;41010;53.252;5.786;2023-05-19T14:23:37;4.70;;;2.00;;
55114;SDS011;41010;53.252;5.786;2023-05-19T14:26:05;4.68;;;2.05;;
55114;SDS011;41010;53.252;5.786;2023-05-19T14:28:32;5.28;;;2.60;;
55114;SDS011;41010;53.252;5.786;2023-05-19T14:30:59;4.03;;;2.05;;
55114;SDS011;41010;53.252;5.786;2023-05-19T14:33:27;4.93;;;2.38;;
55114;SDS011;41010;53.252;5.786;2023-05-19T14:35:55;2.78;;;2.20;;
55114;SDS011;41010;53.252;5.786;2023-05-19T14:38:24;4.55;;;2.45;;
55114;SDS011;41010;53.252;5.786;2023-05-19T14:40:51;3.00;;;1.95;;
55114;SDS011;41010;53.252;5.786;2023-05-19T14:43:18;6.50;;;2.05;;
55114;SDS011;41010;53.252;5.786;2023-05-19T14:45:45;4.20;;;2.20;;
55114;SDS011;41010;53.252;5.786;2023-05-19T14:48:13;4.07;;;1.90;;
55114;SDS011;41010;53.252;5.786;2023-05-19T14:50:40;4.07;;;2.03;;
55114;SDS011;41010;53.252;5.786;2023-05-19T14:53:09;4.05;;;1.92;;
55114;SDS011;41010;53.252;5.786;2023-05-19T14:55:36;5.85;;;2.50;;
55114;SDS011;41010;53.252;5.786;2023-05-19T14:58:03;2.42;;;1.70;;
55114;SDS011;41010;53.252;5.786;2023-05-19T15:00:30;7.70;;;2.00;;
55114;SDS011;41010;53.252;5.786;2023-05-19T15:02:58;3.65;;;1.92;;
55114;SDS011;41010;53.252;5.786;2023-05-19T15:05:25;5.95;;;2.42;;
55114;SDS011;41010;53.252;5.786;2023-05-19T15:07:52;7.03;;;2.45;;
55114;SDS011;41010;53.252;5.786;2023-05-19T15:10:21;3.47;;;1.90;;
55114;SDS011;41010;53.252;5.786;2023-05-19T15:12:49;3.25;;;1.83;;
55114;SDS011;41010;53.252;5.786;2023-05-19T15:15:16;5.40;;;2.20;;